sensor_id;sensor_type;location;lat;lon;timestamp;temperature;humidity
34143;DHT22;20419;10.658;106.724;2023-11-21T00:13:04;28.60;70.40
34143;DHT22;20419;10.658;106.724;2023-11-21T00:15:30;28.50;70.90
34143;DHT22;20419;10.658;106.724;2023-11-21T00:22:49;28.70;70.00
34143;DHT22;20419;10.658;106.724;2023-11-21T00:25:16;28.60;67.30
34143;DHT22;20419;10.658;106.724;2023-11-21T00:30:10;28.60;70.70
34143;DHT22;20419;10.658;106.724;2023-11-21T00:44:50;28.60;66.60
34143;DHT22;20419;10.658;106.724;2023-11-21T00:47:16;28.50;70.40
34143;DHT22;20419;10.658;106.724;2023-11-21T00:54:35;28.60;70.50
34143;DHT22;20419;10.658;106.724;2023-11-21T01:01:54;28.60;67.50
34143;DHT22;20419;10.658;106.724;2023-11-21T01:04:20;28.60;70.40
34143;DHT22;20419;10.658;106.724;2023-11-21T01:06:46;28.60;70.60
34143;DHT22;20419;10.658;106.724;2023-11-21T01:09:13;28.90;70.60
34143;DHT22;20419;10.658;106.724;2023-11-21T01:16:34;28.60;70.30
34143;DHT22;20419;10.658;106.724;2023-11-21T01:21:27;28.60;70.50
34143;DHT22;20419;10.658;106.724;2023-11-21T01:26:21;28.60;69.70
34143;DHT22;20419;10.658;106.724;2023-11-21T01:28:47;28.80;69.50
34143;DHT22;20419;10.658;106.724;2023-11-21T01:31:16;28.70;67.00
34143;DHT22;20419;10.658;106.724;2023-11-21T01:33:42;28.60;69.20
34143;DHT22;20419;10.658;106.724;2023-11-21T01:36:09;28.60;69.20
34143;DHT22;20419;10.658;106.724;2023-11-21T01:43:28;28.70;69.00
34143;DHT22;20419;10.658;106.724;2023-11-21T01:45:56;28.70;68.80
34143;DHT22;20419;10.658;106.724;2023-11-21T01:50:51;28.60;68.60
34143;DHT22;20419;10.658;106.724;2023-11-21T01:53:18;28.70;66.90
34143;DHT22;20419;10.658;106.724;2023-11-21T02:00:38;28.70;67.90
34143;DHT22;20419;10.658;106.724;2023-11-21T02:05:32;28.80;67.80
34143;DHT22;20419;10.658;106.724;2023-11-21T02:07:58;28.90;67.90
34143;DHT22;20419;10.658;106.724;2023-11-21T02:10:26;28.80;67.50
34143;DHT22;20419;10.658;106.724;2023-11-21T02:20:19;28.90;64.30
34143;DHT22;20419;10.658;106.724;2023-11-21T02:22:52;28.90;67.00
34143;DHT22;20419;10.658;106.724;2023-11-21T02:25:28;28.90;66.80
34143;DHT22;20419;10.658;106.724;2023-11-21T02:32:48;28.90;66.90
34143;DHT22;20419;10.658;106.724;2023-11-21T02:35:14;29.00;67.40
34143;DHT22;20419;10.658;106.724;2023-11-21T02:40:08;28.90;69.90
34143;DHT22;20419;10.658;106.724;2023-11-21T02:42:35;29.10;69.70
34143;DHT22;20419;10.658;106.724;2023-11-21T02:47:27;28.90;69.70
34143;DHT22;20419;10.658;106.724;2023-11-21T02:59:39;29.00;70.00
34143;DHT22;20419;10.658;106.724;2023-11-21T03:02:05;29.10;70.10
34143;DHT22;20419;10.658;106.724;2023-11-21T03:04:34;29.20;66.60
34143;DHT22;20419;10.658;106.724;2023-11-21T03:07:00;29.10;70.10
34143;DHT22;20419;10.658;106.724;2023-11-21T03:09:27;29.20;70.60
34143;DHT22;20419;10.658;106.724;2023-11-21T03:16:47;29.30;70.50
34143;DHT22;20419;10.658;106.724;2023-11-21T03:19:13;29.20;71.30
34143;DHT22;20419;10.658;106.724;2023-11-21T03:21:40;29.10;71.90
34143;DHT22;20419;10.658;106.724;2023-11-21T03:26:33;29.30;72.00
34143;DHT22;20419;10.658;106.724;2023-11-21T03:31:26;29.40;71.90
34143;DHT22;20419;10.658;106.724;2023-11-21T03:41:11;29.40;72.10
34143;DHT22;20419;10.658;106.724;2023-11-21T03:43:38;29.50;72.10
34143;DHT22;20419;10.658;106.724;2023-11-21T03:55:51;29.30;72.00
34143;DHT22;20419;10.658;106.724;2023-11-21T03:58:17;29.30;72.30
34143;DHT22;20419;10.658;106.724;2023-11-21T04:05:36;29.40;72.30
34143;DHT22;20419;10.658;106.724;2023-11-21T04:17:47;29.60;72.50
34143;DHT22;20419;10.658;106.724;2023-11-21T04:20:14;29.80;72.70
34143;DHT22;20419;10.658;106.724;2023-11-21T04:22:40;29.50;72.40
34143;DHT22;20419;10.658;106.724;2023-11-21T04:25:08;29.70;72.50
34143;DHT22;20419;10.658;106.724;2023-11-21T04:27:36;29.80;72.80
34143;DHT22;20419;10.658;106.724;2023-11-21T04:34:55;29.70;72.80
34143;DHT22;20419;10.658;106.724;2023-11-21T04:42:15;29.70;71.00
34143;DHT22;20419;10.658;106.724;2023-11-21T04:44:41;29.70;72.10
34143;DHT22;20419;10.658;106.724;2023-11-21T04:49:33;29.70;73.40
34143;DHT22;20419;10.658;106.724;2023-11-21T04:56:54;29.60;73.50
34143;DHT22;20419;10.658;106.724;2023-11-21T04:59:20;29.70;73.60
34143;DHT22;20419;10.658;106.724;2023-11-21T05:04:16;29.80;73.90
34143;DHT22;20419;10.658;106.724;2023-11-21T05:09:09;29.80;73.60
34143;DHT22;20419;10.658;106.724;2023-11-21T05:23:53;29.60;73.70
34143;DHT22;20419;10.658;106.724;2023-11-21T05:26:19;29.70;73.60
34143;DHT22;20419;10.658;106.724;2023-11-21T05:28:46;29.70;70.40
34143;DHT22;20419;10.658;106.724;2023-11-21T05:41:01;29.70;75.30
34143;DHT22;20419;10.658;106.724;2023-11-21T05:45:55;29.80;74.30
34143;DHT22;20419;10.658;106.724;2023-11-21T06:00:35;29.90;74.50
34143;DHT22;20419;10.658;106.724;2023-11-21T06:15:20;29.80;75.00
34143;DHT22;20419;10.658;106.724;2023-11-21T06:17:48;29.80;75.70
34143;DHT22;20419;10.658;106.724;2023-11-21T06:20:18;29.80;75.20
34143;DHT22;20419;10.658;106.724;2023-11-21T06:22:45;29.80;75.40
34143;DHT22;20419;10.658;106.724;2023-11-21T06:30:07;29.90;76.00
34143;DHT22;20419;10.658;106.724;2023-11-21T06:32:35;29.70;74.40
34143;DHT22;20419;10.658;106.724;2023-11-21T06:42:22;29.50;75.70
34143;DHT22;20419;10.658;106.724;2023-11-21T06:52:16;29.30;73.40
34143;DHT22;20419;10.658;106.724;2023-11-21T06:57:11;29.30;74.00
34143;DHT22;20419;10.658;106.724;2023-11-21T07:02:03;29.20;72.50
34143;DHT22;20419;10.658;106.724;2023-11-21T07:06:58;29.10;69.90
34143;DHT22;20419;10.658;106.724;2023-11-21T07:09:25;29.10;68.80
34143;DHT22;20419;10.658;106.724;2023-11-21T07:14:18;29.10;67.70
34143;DHT22;20419;10.658;106.724;2023-11-21T07:16:45;29.10;67.20
34143;DHT22;20419;10.658;106.724;2023-11-21T07:21:38;29.20;65.90
34143;DHT22;20419;10.658;106.724;2023-11-21T07:24:08;29.00;65.70
34143;DHT22;20419;10.658;106.724;2023-11-21T07:38:50;29.00;64.00
34143;DHT22;20419;10.658;106.724;2023-11-21T07:43:43;29.00;63.50
34143;DHT22;20419;10.658;106.724;2023-11-21T07:46:10;28.90;63.30
34143;DHT22;20419;10.658;106.724;2023-11-21T07:51:04;28.90;65.60
34143;DHT22;20419;10.658;106.724;2023-11-21T08:00:50;29.00;66.80
34143;DHT22;20419;10.658;106.724;2023-11-21T08:03:16;29.10;67.10
34143;DHT22;20419;10.658;106.724;2023-11-21T08:10:35;29.00;67.70
34143;DHT22;20419;10.658;106.724;2023-11-21T08:13:02;29.00;68.20
34143;DHT22;20419;10.658;106.724;2023-11-21T08:15:29;29.00;68.50
34143;DHT22;20419;10.658;106.724;2023-11-21T08:20:24;28.90;69.00
34143;DHT22;20419;10.658;106.724;2023-11-21T08:22:51;29.10;69.40
34143;DHT22;20419;10.658;106.724;2023-11-21T08:32:42;28.90;68.00
34143;DHT22;20419;10.658;106.724;2023-11-21T08:35:10;29.10;70.30
34143;DHT22;20419;10.658;106.724;2023-11-21T08:40:05;29.00;70.50
34143;DHT22;20419;10.658;106.724;2023-11-21T08:52:24;29.40;73.10
34143;DHT22;20419;10.658;106.724;2023-11-21T08:54:50;29.10;73.00
34143;DHT22;20419;10.658;106.724;2023-11-21T08:57:22;28.70;70.70
34143;DHT22;20419;10.658;106.724;2023-11-21T09:02:21;29.20;73.50
34143;DHT22;20419;10.658;106.724;2023-11-21T09:07:16;29.10;71.50
34143;DHT22;20419;10.658;106.724;2023-11-21T09:27:43;29.20;76.20
34143;DHT22;20419;10.658;106.724;2023-11-21T09:30:11;29.30;76.10
34143;DHT22;20419;10.658;106.724;2023-11-21T09:35:06;29.30;72.90
34143;DHT22;20419;10.658;106.724;2023-11-21T09:37:35;29.30;76.20
34143;DHT22;20419;10.658;106.724;2023-11-21T09:45:18;29.30;76.50
34143;DHT22;20419;10.658;106.724;2023-11-21T09:47:42;29.30;76.50
34143;DHT22;20419;10.658;106.724;2023-11-21T09:50:09;29.40;75.80
34143;DHT22;20419;10.658;106.724;2023-11-21T09:53:21;29.40;76.60
34143;DHT22;20419;10.658;106.724;2023-11-21T10:00:16;29.40;76.70
34143;DHT22;20419;10.658;106.724;2023-11-21T10:02:43;29.40;77.30
34143;DHT22;20419;10.658;106.724;2023-11-21T10:07:38;29.40;75.00
34143;DHT22;20419;10.658;106.724;2023-11-21T10:10:07;29.40;77.60
34143;DHT22;20419;10.658;106.724;2023-11-21T10:12:34;29.30;77.40
34143;DHT22;20419;10.658;106.724;2023-11-21T10:19:56;29.40;77.60
34143;DHT22;20419;10.658;106.724;2023-11-21T10:22:23;29.60;74.20
34143;DHT22;20419;10.658;106.724;2023-11-21T10:41:56;29.30;75.00
34143;DHT22;20419;10.658;106.724;2023-11-21T10:44:22;29.40;77.30
34143;DHT22;20419;10.658;106.724;2023-11-21T10:49:17;29.50;78.60
34143;DHT22;20419;10.658;106.724;2023-11-21T11:03:59;29.40;78.80
34143;DHT22;20419;10.658;106.724;2023-11-21T11:06:26;29.40;78.50
34143;DHT22;20419;10.658;106.724;2023-11-21T11:13:45;29.60;78.40
34143;DHT22;20419;10.658;106.724;2023-11-21T11:40:56;29.40;76.00
34143;DHT22;20419;10.658;106.724;2023-11-21T11:43:26;29.40;78.50
34143;DHT22;20419;10.658;106.724;2023-11-21T11:45:56;29.40;78.60
34143;DHT22;20419;10.658;106.724;2023-11-21T11:53:15;29.40;78.60
34143;DHT22;20419;10.658;106.724;2023-11-21T11:55:42;29.40;76.90
34143;DHT22;20419;10.658;106.724;2023-11-21T12:00:36;29.40;78.30
34143;DHT22;20419;10.658;106.724;2023-11-21T12:03:06;29.40;78.70
34143;DHT22;20419;10.658;106.724;2023-11-21T12:05:33;29.40;76.30
34143;DHT22;20419;10.658;106.724;2023-11-21T12:08:10;29.50;77.30
34143;DHT22;20419;10.658;106.724;2023-11-21T12:10:38;29.40;78.20
34143;DHT22;20419;10.658;106.724;2023-11-21T12:13:08;29.40;78.10
34143;DHT22;20419;10.658;106.724;2023-11-21T12:22:55;29.40;78.20
34143;DHT22;20419;10.658;106.724;2023-11-21T12:25:22;29.50;78.30
34143;DHT22;20419;10.658;106.724;2023-11-21T12:27:50;29.50;78.10
34143;DHT22;20419;10.658;106.724;2023-11-21T12:30:17;29.40;78.20
34143;DHT22;20419;10.658;106.724;2023-11-21T12:35:11;29.40;76.90
34143;DHT22;20419;10.658;106.724;2023-11-21T12:40:08;29.20;78.30
34143;DHT22;20419;10.658;106.724;2023-11-21T12:42:38;29.40;78.50
34143;DHT22;20419;10.658;106.724;2023-11-21T12:52:43;29.50;78.60
34143;DHT22;20419;10.658;106.724;2023-11-21T12:55:17;29.40;78.40
34143;DHT22;20419;10.658;106.724;2023-11-21T12:57:49;29.40;78.30
34143;DHT22;20419;10.658;106.724;2023-11-21T13:03:19;29.50;78.40
34143;DHT22;20419;10.658;106.724;2023-11-21T13:13:14;29.40;76.50
34143;DHT22;20419;10.658;106.724;2023-11-21T13:18:09;29.40;77.10
34143;DHT22;20419;10.658;106.724;2023-11-21T13:23:07;29.60;78.80
34143;DHT22;20419;10.658;106.724;2023-11-21T13:25:34;29.40;78.80
34143;DHT22;20419;10.658;106.724;2023-11-21T13:28:03;29.50;78.80
34143;DHT22;20419;10.658;106.724;2023-11-21T13:30:30;29.30;78.60
34143;DHT22;20419;10.658;106.724;2023-11-21T13:33:03;29.50;79.00
34143;DHT22;20419;10.658;106.724;2023-11-21T13:35:34;29.50;78.80
34143;DHT22;20419;10.658;106.724;2023-11-21T13:45:46;29.40;79.00
34143;DHT22;20419;10.658;106.724;2023-11-21T13:48:13;29.40;79.10
34143;DHT22;20419;10.658;106.724;2023-11-21T13:51:01;29.50;76.90
34143;DHT22;20419;10.658;106.724;2023-11-21T13:53:38;29.60;79.50
34143;DHT22;20419;10.658;106.724;2023-11-21T13:56:08;29.40;77.00
34143;DHT22;20419;10.658;106.724;2023-11-21T14:01:22;29.50;79.50
34143;DHT22;20419;10.658;106.724;2023-11-21T14:04:19;29.50;79.20
34143;DHT22;20419;10.658;106.724;2023-11-21T14:07:00;29.40;78.20
34143;DHT22;20419;10.658;106.724;2023-11-21T14:09:40;29.30;78.90
34143;DHT22;20419;10.658;106.724;2023-11-21T14:19:33;29.50;79.20
34143;DHT22;20419;10.658;106.724;2023-11-21T14:29:24;29.50;79.40
34143;DHT22;20419;10.658;106.724;2023-11-21T14:31:50;29.60;79.40
34143;DHT22;20419;10.658;106.724;2023-11-21T14:34:19;29.50;79.40
34143;DHT22;20419;10.658;106.724;2023-11-21T14:46:47;29.60;76.10
34143;DHT22;20419;10.658;106.724;2023-11-21T14:51:54;29.40;79.00
34143;DHT22;20419;10.658;106.724;2023-11-21T14:54:30;29.50;79.10
34143;DHT22;20419;10.658;106.724;2023-11-21T15:07:13;29.50;79.20
34143;DHT22;20419;10.658;106.724;2023-11-21T15:09:39;29.40;79.20
34143;DHT22;20419;10.658;106.724;2023-11-21T15:14:47;29.40;79.40
34143;DHT22;20419;10.658;106.724;2023-11-21T15:32:05;29.50;79.40
34143;DHT22;20419;10.658;106.724;2023-11-21T15:34:32;29.40;79.30
34143;DHT22;20419;10.658;106.724;2023-11-21T15:39:25;29.50;79.70
34143;DHT22;20419;10.658;106.724;2023-11-21T15:41:59;29.50;79.50
34143;DHT22;20419;10.658;106.724;2023-11-21T15:46:54;29.40;76.00
34143;DHT22;20419;10.658;106.724;2023-11-21T15:51:48;29.40;79.60
34143;DHT22;20419;10.658;106.724;2023-11-21T15:59:25;29.40;79.70
34143;DHT22;20419;10.658;106.724;2023-11-21T16:04:23;29.40;78.90
34143;DHT22;20419;10.658;106.724;2023-11-21T16:09:19;29.40;80.00
34143;DHT22;20419;10.658;106.724;2023-11-21T16:11:49;29.40;80.10
34143;DHT22;20419;10.658;106.724;2023-11-21T16:16:55;29.50;80.10
34143;DHT22;20419;10.658;106.724;2023-11-21T16:19:23;29.10;79.90
34143;DHT22;20419;10.658;106.724;2023-11-21T16:24:16;29.50;80.10
34143;DHT22;20419;10.658;106.724;2023-11-21T16:26:43;29.40;80.20
34143;DHT22;20419;10.658;106.724;2023-11-21T16:29:09;29.50;77.20
34143;DHT22;20419;10.658;106.724;2023-11-21T16:31:40;29.40;80.20
34143;DHT22;20419;10.658;106.724;2023-11-21T16:36:33;29.40;79.90
34143;DHT22;20419;10.658;106.724;2023-11-21T16:38:59;29.50;80.10
34143;DHT22;20419;10.658;106.724;2023-11-21T16:43:52;29.60;80.30
34143;DHT22;20419;10.658;106.724;2023-11-21T16:48:45;29.50;80.30
34143;DHT22;20419;10.658;106.724;2023-11-21T16:58:31;29.50;80.30
34143;DHT22;20419;10.658;106.724;2023-11-21T17:00:59;29.50;80.10
34143;DHT22;20419;10.658;106.724;2023-11-21T17:03:27;29.30;80.20
34143;DHT22;20419;10.658;106.724;2023-11-21T17:05:53;29.40;79.40
34143;DHT22;20419;10.658;106.724;2023-11-21T17:10:51;29.30;80.10
34143;DHT22;20419;10.658;106.724;2023-11-21T17:13:17;29.50;80.30
34143;DHT22;20419;10.658;106.724;2023-11-21T17:23:04;29.70;80.60
34143;DHT22;20419;10.658;106.724;2023-11-21T17:25:35;29.50;80.60
34143;DHT22;20419;10.658;106.724;2023-11-21T17:28:04;29.20;80.30
34143;DHT22;20419;10.658;106.724;2023-11-21T17:32:57;29.50;80.60
34143;DHT22;20419;10.658;106.724;2023-11-21T17:35:23;29.50;77.50
34143;DHT22;20419;10.658;106.724;2023-11-21T17:37:49;29.60;78.50
34143;DHT22;20419;10.658;106.724;2023-11-21T17:40:17;29.60;80.60
34143;DHT22;20419;10.658;106.724;2023-11-21T17:47:38;29.40;79.30
34143;DHT22;20419;10.658;106.724;2023-11-21T17:52:31;29.40;81.30
34143;DHT22;20419;10.658;106.724;2023-11-21T17:54:57;29.40;81.40
34143;DHT22;20419;10.658;106.724;2023-11-21T18:04:43;29.50;81.90
34143;DHT22;20419;10.658;106.724;2023-11-21T18:09:38;29.50;81.90
34143;DHT22;20419;10.658;106.724;2023-11-21T18:12:06;29.50;82.00
34143;DHT22;20419;10.658;106.724;2023-11-21T18:26:44;29.50;82.30
34143;DHT22;20419;10.658;106.724;2023-11-21T18:31:43;29.80;82.50
34143;DHT22;20419;10.658;106.724;2023-11-21T18:34:09;29.60;82.40
34143;DHT22;20419;10.658;106.724;2023-11-21T18:39:02;29.50;79.40
34143;DHT22;20419;10.658;106.724;2023-11-21T18:41:29;29.50;82.40
34143;DHT22;20419;10.658;106.724;2023-11-21T18:48:50;29.50;82.40
34143;DHT22;20419;10.658;106.724;2023-11-21T18:58:36;29.50;83.10
34143;DHT22;20419;10.658;106.724;2023-11-21T19:01:02;29.60;80.00
34143;DHT22;20419;10.658;106.724;2023-11-21T19:05:55;29.50;83.30
34143;DHT22;20419;10.658;106.724;2023-11-21T19:10:48;29.50;83.20
34143;DHT22;20419;10.658;106.724;2023-11-21T19:13:14;29.50;80.40
34143;DHT22;20419;10.658;106.724;2023-11-21T19:18:09;29.50;82.30
34143;DHT22;20419;10.658;106.724;2023-11-21T19:23:03;29.50;83.50
34143;DHT22;20419;10.658;106.724;2023-11-21T19:25:30;29.50;83.50
34143;DHT22;20419;10.658;106.724;2023-11-21T19:27:57;29.50;83.00
34143;DHT22;20419;10.658;106.724;2023-11-21T19:30:24;29.50;79.80
34143;DHT22;20419;10.658;106.724;2023-11-21T19:32:50;29.60;82.90
34143;DHT22;20419;10.658;106.724;2023-11-21T19:40:09;29.60;82.80
34143;DHT22;20419;10.658;106.724;2023-11-21T19:45:02;29.50;82.60
34143;DHT22;20419;10.658;106.724;2023-11-21T19:54:52;29.60;82.70
34143;DHT22;20419;10.658;106.724;2023-11-21T19:57:19;29.50;82.60
34143;DHT22;20419;10.658;106.724;2023-11-21T20:04:38;29.50;82.60
34143;DHT22;20419;10.658;106.724;2023-11-21T20:07:05;29.60;81.20
34143;DHT22;20419;10.658;106.724;2023-11-21T20:09:31;29.80;83.20
34143;DHT22;20419;10.658;106.724;2023-11-21T20:19:17;29.50;79.80
34143;DHT22;20419;10.658;106.724;2023-11-21T20:21:43;29.70;82.90
34143;DHT22;20419;10.658;106.724;2023-11-21T20:24:09;29.60;82.70
34143;DHT22;20419;10.658;106.724;2023-11-21T20:26:38;29.50;82.50
34143;DHT22;20419;10.658;106.724;2023-11-21T20:36:27;29.50;82.80
34143;DHT22;20419;10.658;106.724;2023-11-21T20:41:19;29.60;83.10
34143;DHT22;20419;10.658;106.724;2023-11-21T20:43:46;29.50;80.10
34143;DHT22;20419;10.658;106.724;2023-11-21T20:48:38;29.60;83.10
34143;DHT22;20419;10.658;106.724;2023-11-21T20:53:31;29.60;83.30
34143;DHT22;20419;10.658;106.724;2023-11-21T20:58:26;29.70;83.10
34143;DHT22;20419;10.658;106.724;2023-11-21T21:05:46;29.70;83.00
34143;DHT22;20419;10.658;106.724;2023-11-21T21:22:58;29.60;82.50
34143;DHT22;20419;10.658;106.724;2023-11-21T21:30:19;29.70;82.80
34143;DHT22;20419;10.658;106.724;2023-11-21T21:40:05;29.50;82.50
34143;DHT22;20419;10.658;106.724;2023-11-21T21:45:00;29.50;83.10
34143;DHT22;20419;10.658;106.724;2023-11-21T21:52:19;29.40;82.30
34143;DHT22;20419;10.658;106.724;2023-11-21T21:59:40;29.50;80.90
34143;DHT22;20419;10.658;106.724;2023-11-21T22:04:34;29.30;80.60
34143;DHT22;20419;10.658;106.724;2023-11-21T22:07:01;29.40;81.00
34143;DHT22;20419;10.658;106.724;2023-11-21T22:09:27;29.40;80.60
34143;DHT22;20419;10.658;106.724;2023-11-21T22:14:24;29.30;79.20
34143;DHT22;20419;10.658;106.724;2023-11-21T22:19:17;29.30;79.40
34143;DHT22;20419;10.658;106.724;2023-11-21T22:21:44;29.20;75.30
34143;DHT22;20419;10.658;106.724;2023-11-21T22:24:10;29.20;78.30
34143;DHT22;20419;10.658;106.724;2023-11-21T22:26:36;29.20;79.00
34143;DHT22;20419;10.658;106.724;2023-11-21T22:29:03;29.20;78.80
34143;DHT22;20419;10.658;106.724;2023-11-21T22:36:22;29.10;77.20
34143;DHT22;20419;10.658;106.724;2023-11-21T22:41:22;29.20;77.70
34143;DHT22;20419;10.658;106.724;2023-11-21T22:43:49;29.10;77.10
34143;DHT22;20419;10.658;106.724;2023-11-21T22:48:41;29.10;76.90
34143;DHT22;20419;10.658;106.724;2023-11-21T22:51:08;29.10;73.90
34143;DHT22;20419;10.658;106.724;2023-11-21T22:58:26;29.10;72.80
34143;DHT22;20419;10.658;106.724;2023-11-21T23:00:53;28.90;76.20
34143;DHT22;20419;10.658;106.724;2023-11-21T23:03:23;29.00;74.90
34143;DHT22;20419;10.658;106.724;2023-11-21T23:08:18;29.00;75.50
34143;DHT22;20419;10.658;106.724;2023-11-21T23:23:01;29.00;75.50
34143;DHT22;20419;10.658;106.724;2023-11-21T23:25:27;29.00;74.90
34143;DHT22;20419;10.658;106.724;2023-11-21T23:27:57;28.80;74.80
34143;DHT22;20419;10.658;106.724;2023-11-21T23:32:53;28.80;74.30
34143;DHT22;20419;10.658;106.724;2023-11-21T23:37:46;28.90;74.20
34143;DHT22;20419;10.658;106.724;2023-11-21T23:40:13;28.90;72.90
34143;DHT22;20419;10.658;106.724;2023-11-21T23:47:32;28.80;73.40
34143;DHT22;20419;10.658;106.724;2023-11-21T23:52:25;28.80;73.60
34143;DHT22;20419;10.658;106.724;2023-11-21T23:54:54;28.70;73.90
